sensor_id;sensor_type;location;lat;lon;timestamp;P1;durP1;ratioP1;P2;durP2;ratioP2
7100;SDS011;67978;48.710;8.720;2023-03-01T00:00:03;17.73;;;10.20;;
7100;SDS011;67978;48.710;8.720;2023-03-01T00:02:32;17.67;;;8.93;;
7100;SDS011;67978;48.710;8.720;2023-03-01T00:04:59;16.03;;;9.43;;
7100;SDS011;67978;48.710;8.720;2023-03-01T00:07:27;16.00;;;9.03;;
7100;SDS011;67978;48.710;8.720;2023-03-01T00:09:54;17.73;;;10.03;;
7100;SDS011;67978;48.710;8.720;2023-03-01T00:12:21;15.93;;;9.27;;
7100;SDS011;67978;48.710;8.720;2023-03-01T00:14:48;16.90;;;9.20;;
7100;SDS011;67978;48.710;8.720;2023-03-01T00:17:15;14.50;;;9.37;;
7100;SDS011;67978;48.710;8.720;2023-03-01T00:19:42;16.90;;;9.53;;
7100;SDS011;67978;48.710;8.720;2023-03-01T00:22:09;19.90;;;10.13;;
7100;SDS011;67978;48.710;8.720;2023-03-01T00:24:37;16.90;;;9.97;;
7100;SDS011;67978;48.710;8.720;2023-03-01T00:27:04;18.90;;;9.53;;
7100;SDS011;67978;48.710;8.720;2023-03-01T00:29:30;19.63;;;10.10;;
7100;SDS011;67978;48.710;8.720;2023-03-01T00:31:57;14.83;;;9.77;;
7100;SDS011;67978;48.710;8.720;2023-03-01T00:34:24;16.27;;;9.50;;
7100;SDS011;67978;48.710;8.720;2023-03-01T00:36:51;18.47;;;9.30;;
7100;SDS011;67978;48.710;8.720;2023-03-01T00:39:17;18.63;;;9.23;;
7100;SDS011;67978;48.710;8.720;2023-03-01T00:41:46;18.37;;;9.80;;
7100;SDS011;67978;48.710;8.720;2023-03-01T00:44:12;16.47;;;9.40;;
7100;SDS011;67978;48.710;8.720;2023-03-01T00:46:39;17.10;;;9.33;;
7100;SDS011;67978;48.710;8.720;2023-03-01T00:49:06;16.00;;;9.20;;
7100;SDS011;67978;48.710;8.720;2023-03-01T00:51:33;14.33;;;9.37;;
7100;SDS011;67978;48.710;8.720;2023-03-01T00:54:00;17.10;;;10.23;;
7100;SDS011;67978;48.710;8.720;2023-03-01T00:56:28;14.63;;;9.13;;
7100;SDS011;67978;48.710;8.720;2023-03-01T00:58:57;19.30;;;9.67;;
7100;SDS011;67978;48.710;8.720;2023-03-01T01:01:24;16.90;;;9.33;;
7100;SDS011;67978;48.710;8.720;2023-03-01T01:03:56;16.13;;;9.47;;
7100;SDS011;67978;48.710;8.720;2023-03-01T01:06:26;19.23;;;10.20;;
7100;SDS011;67978;48.710;8.720;2023-03-01T01:08:54;17.13;;;9.37;;
7100;SDS011;67978;48.710;8.720;2023-03-01T01:11:23;15.60;;;9.30;;
7100;SDS011;67978;48.710;8.720;2023-03-01T01:13:54;16.93;;;9.30;;
7100;SDS011;67978;48.710;8.720;2023-03-01T01:16:25;17.63;;;10.37;;
7100;SDS011;67978;48.710;8.720;2023-03-01T01:18:53;20.40;;;10.17;;
7100;SDS011;67978;48.710;8.720;2023-03-01T01:21:21;17.87;;;8.63;;
7100;SDS011;67978;48.710;8.720;2023-03-01T01:23:50;18.07;;;9.87;;
7100;SDS011;67978;48.710;8.720;2023-03-01T01:26:18;20.00;;;9.90;;
7100;SDS011;67978;48.710;8.720;2023-03-01T01:28:47;19.07;;;10.67;;
7100;SDS011;67978;48.710;8.720;2023-03-01T01:31:14;21.67;;;9.87;;
7100;SDS011;67978;48.710;8.720;2023-03-01T01:33:43;17.47;;;9.73;;
7100;SDS011;67978;48.710;8.720;2023-03-01T01:36:11;19.10;;;10.23;;
7100;SDS011;67978;48.710;8.720;2023-03-01T01:38:38;17.60;;;9.87;;
7100;SDS011;67978;48.710;8.720;2023-03-01T01:41:07;18.20;;;10.17;;
7100;SDS011;67978;48.710;8.720;2023-03-01T01:43:37;17.53;;;9.57;;
7100;SDS011;67978;48.710;8.720;2023-03-01T01:46:07;20.33;;;10.67;;
7100;SDS011;67978;48.710;8.720;2023-03-01T01:48:48;17.27;;;10.33;;
7100;SDS011;67978;48.710;8.720;2023-03-01T01:51:19;21.30;;;10.00;;
7100;SDS011;67978;48.710;8.720;2023-03-01T01:53:53;17.83;;;10.43;;
7100;SDS011;67978;48.710;8.720;2023-03-01T01:56:23;18.73;;;9.90;;
7100;SDS011;67978;48.710;8.720;2023-03-01T01:58:52;18.53;;;9.67;;
7100;SDS011;67978;48.710;8.720;2023-03-01T02:01:19;16.73;;;9.80;;
7100;SDS011;67978;48.710;8.720;2023-03-01T02:03:48;18.70;;;9.73;;
7100;SDS011;67978;48.710;8.720;2023-03-01T02:06:17;20.20;;;10.93;;
7100;SDS011;67978;48.710;8.720;2023-03-01T02:08:53;18.40;;;10.30;;
7100;SDS011;67978;48.710;8.720;2023-03-01T02:11:23;18.43;;;9.57;;
7100;SDS011;67978;48.710;8.720;2023-03-01T02:13:51;18.57;;;9.97;;
7100;SDS011;67978;48.710;8.720;2023-03-01T02:16:20;19.90;;;10.53;;
7100;SDS011;67978;48.710;8.720;2023-03-01T02:18:48;17.57;;;10.13;;
7100;SDS011;67978;48.710;8.720;2023-03-01T02:21:19;20.10;;;10.53;;
7100;SDS011;67978;48.710;8.720;2023-03-01T02:24:05;19.60;;;11.30;;
7100;SDS011;67978;48.710;8.720;2023-03-01T02:26:49;18.63;;;10.73;;
7100;SDS011;67978;48.710;8.720;2023-03-01T02:29:21;22.27;;;10.20;;
7100;SDS011;67978;48.710;8.720;2023-03-01T02:31:49;20.27;;;10.93;;
7100;SDS011;67978;48.710;8.720;2023-03-01T02:34:18;20.53;;;10.33;;
7100;SDS011;67978;48.710;8.720;2023-03-01T02:36:51;18.37;;;10.83;;
7100;SDS011;67978;48.710;8.720;2023-03-01T02:39:22;20.27;;;10.53;;
7100;SDS011;67978;48.710;8.720;2023-03-01T02:41:54;16.93;;;10.40;;
7100;SDS011;67978;48.710;8.720;2023-03-01T02:44:23;23.03;;;10.47;;
7100;SDS011;67978;48.710;8.720;2023-03-01T02:46:51;18.60;;;10.63;;
7100;SDS011;67978;48.710;8.720;2023-03-01T02:49:22;19.53;;;10.50;;
7100;SDS011;67978;48.710;8.720;2023-03-01T02:51:56;18.37;;;10.40;;
7100;SDS011;67978;48.710;8.720;2023-03-01T02:54:54;20.80;;;11.30;;
7100;SDS011;67978;48.710;8.720;2023-03-01T02:57:25;21.07;;;11.67;;
7100;SDS011;67978;48.710;8.720;2023-03-01T02:59:56;17.70;;;10.30;;
7100;SDS011;67978;48.710;8.720;2023-03-01T03:02:26;17.90;;;10.07;;
7100;SDS011;67978;48.710;8.720;2023-03-01T03:05:03;19.97;;;10.90;;
7100;SDS011;67978;48.710;8.720;2023-03-01T03:07:33;20.10;;;11.80;;
7100;SDS011;67978;48.710;8.720;2023-03-01T03:10:01;22.63;;;11.43;;
7100;SDS011;67978;48.710;8.720;2023-03-01T03:12:32;20.70;;;10.70;;
7100;SDS011;67978;48.710;8.720;2023-03-01T03:15:00;20.23;;;10.93;;
7100;SDS011;67978;48.710;8.720;2023-03-01T03:17:33;21.27;;;11.10;;
7100;SDS011;67978;48.710;8.720;2023-03-01T03:20:04;18.43;;;10.93;;
7100;SDS011;67978;48.710;8.720;2023-03-01T03:22:36;23.70;;;11.80;;
7100;SDS011;67978;48.710;8.720;2023-03-01T03:25:04;21.87;;;10.83;;
7100;SDS011;67978;48.710;8.720;2023-03-01T03:27:35;24.07;;;12.47;;
7100;SDS011;67978;48.710;8.720;2023-03-01T03:30:05;20.37;;;11.70;;
7100;SDS011;67978;48.710;8.720;2023-03-01T03:32:35;19.63;;;11.43;;
7100;SDS011;67978;48.710;8.720;2023-03-01T03:35:01;18.27;;;11.03;;
7100;SDS011;67978;48.710;8.720;2023-03-01T03:37:41;24.27;;;11.70;;
7100;SDS011;67978;48.710;8.720;2023-03-01T03:40:26;20.17;;;11.70;;
7100;SDS011;67978;48.710;8.720;2023-03-01T03:42:54;19.50;;;11.03;;
7100;SDS011;67978;48.710;8.720;2023-03-01T03:45:22;26.07;;;11.63;;
7100;SDS011;67978;48.710;8.720;2023-03-01T03:47:50;23.77;;;11.47;;
7100;SDS011;67978;48.710;8.720;2023-03-01T03:50:16;21.90;;;11.67;;
7100;SDS011;67978;48.710;8.720;2023-03-01T03:52:44;21.03;;;10.80;;
7100;SDS011;67978;48.710;8.720;2023-03-01T03:55:11;23.73;;;11.50;;
7100;SDS011;67978;48.710;8.720;2023-03-01T03:57:39;21.70;;;11.13;;
7100;SDS011;67978;48.710;8.720;2023-03-01T04:00:08;20.47;;;11.83;;
7100;SDS011;67978;48.710;8.720;2023-03-01T04:02:39;21.27;;;11.30;;
7100;SDS011;67978;48.710;8.720;2023-03-01T04:05:06;19.43;;;10.83;;
7100;SDS011;67978;48.710;8.720;2023-03-01T04:07:34;23.70;;;11.97;;
7100;SDS011;67978;48.710;8.720;2023-03-01T04:10:03;21.27;;;10.83;;
7100;SDS011;67978;48.710;8.720;2023-03-01T04:12:35;22.13;;;12.37;;
7100;SDS011;67978;48.710;8.720;2023-03-01T04:15:02;22.93;;;12.37;;
7100;SDS011;67978;48.710;8.720;2023-03-01T04:17:37;20.30;;;12.17;;
7100;SDS011;67978;48.710;8.720;2023-03-01T04:20:07;22.37;;;11.37;;
7100;SDS011;67978;48.710;8.720;2023-03-01T04:22:36;21.43;;;12.37;;
7100;SDS011;67978;48.710;8.720;2023-03-01T04:25:03;20.40;;;11.83;;
7100;SDS011;67978;48.710;8.720;2023-03-01T04:27:32;19.80;;;11.50;;
7100;SDS011;67978;48.710;8.720;2023-03-01T04:29:59;20.30;;;11.20;;
7100;SDS011;67978;48.710;8.720;2023-03-01T04:32:25;23.00;;;12.80;;
7100;SDS011;67978;48.710;8.720;2023-03-01T04:34:54;24.77;;;12.60;;
7100;SDS011;67978;48.710;8.720;2023-03-01T04:37:20;22.23;;;11.50;;
7100;SDS011;67978;48.710;8.720;2023-03-01T04:39:48;24.73;;;13.20;;
7100;SDS011;67978;48.710;8.720;2023-03-01T04:42:15;21.30;;;11.93;;
7100;SDS011;67978;48.710;8.720;2023-03-01T04:44:42;21.10;;;12.23;;
7100;SDS011;67978;48.710;8.720;2023-03-01T04:47:09;22.90;;;12.17;;
7100;SDS011;67978;48.710;8.720;2023-03-01T04:49:36;18.97;;;11.27;;
7100;SDS011;67978;48.710;8.720;2023-03-01T04:52:04;21.83;;;13.57;;
7100;SDS011;67978;48.710;8.720;2023-03-01T04:54:31;22.33;;;11.57;;
7100;SDS011;67978;48.710;8.720;2023-03-01T04:57:00;26.43;;;12.23;;
7100;SDS011;67978;48.710;8.720;2023-03-01T04:59:27;22.43;;;12.47;;
7100;SDS011;67978;48.710;8.720;2023-03-01T05:01:54;22.20;;;11.67;;
7100;SDS011;67978;48.710;8.720;2023-03-01T05:04:22;23.93;;;13.00;;
7100;SDS011;67978;48.710;8.720;2023-03-01T05:06:49;23.80;;;12.57;;
7100;SDS011;67978;48.710;8.720;2023-03-01T05:09:17;22.43;;;12.10;;
7100;SDS011;67978;48.710;8.720;2023-03-01T05:11:44;20.03;;;12.00;;
7100;SDS011;67978;48.710;8.720;2023-03-01T05:14:11;22.77;;;12.60;;
7100;SDS011;67978;48.710;8.720;2023-03-01T05:16:38;27.00;;;12.97;;
7100;SDS011;67978;48.710;8.720;2023-03-01T05:19:05;23.07;;;12.40;;
7100;SDS011;67978;48.710;8.720;2023-03-01T05:21:36;21.83;;;12.57;;
7100;SDS011;67978;48.710;8.720;2023-03-01T05:24:26;26.63;;;12.73;;
7100;SDS011;67978;48.710;8.720;2023-03-01T05:26:53;25.90;;;13.63;;
7100;SDS011;67978;48.710;8.720;2023-03-01T05:29:20;25.07;;;12.23;;
7100;SDS011;67978;48.710;8.720;2023-03-01T05:31:51;20.60;;;12.33;;
7100;SDS011;67978;48.710;8.720;2023-03-01T05:34:18;20.90;;;12.47;;
7100;SDS011;67978;48.710;8.720;2023-03-01T05:36:49;20.43;;;12.40;;
7100;SDS011;67978;48.710;8.720;2023-03-01T05:39:18;22.37;;;12.70;;
7100;SDS011;67978;48.710;8.720;2023-03-01T05:41:48;22.90;;;13.00;;
7100;SDS011;67978;48.710;8.720;2023-03-01T05:44:19;24.00;;;13.60;;
7100;SDS011;67978;48.710;8.720;2023-03-01T05:46:46;22.60;;;12.30;;
7100;SDS011;67978;48.710;8.720;2023-03-01T05:49:13;20.53;;;11.87;;
7100;SDS011;67978;48.710;8.720;2023-03-01T05:51:40;20.43;;;11.93;;
7100;SDS011;67978;48.710;8.720;2023-03-01T05:54:07;25.10;;;12.57;;
7100;SDS011;67978;48.710;8.720;2023-03-01T05:56:35;26.70;;;13.40;;
7100;SDS011;67978;48.710;8.720;2023-03-01T05:59:04;22.17;;;12.30;;
7100;SDS011;67978;48.710;8.720;2023-03-01T06:01:31;20.63;;;12.20;;
7100;SDS011;67978;48.710;8.720;2023-03-01T06:03:58;24.30;;;12.87;;
7100;SDS011;67978;48.710;8.720;2023-03-01T06:06:25;26.23;;;13.03;;
7100;SDS011;67978;48.710;8.720;2023-03-01T06:08:52;22.23;;;12.70;;
7100;SDS011;67978;48.710;8.720;2023-03-01T06:11:19;23.63;;;12.93;;
7100;SDS011;67978;48.710;8.720;2023-03-01T06:13:46;25.90;;;13.03;;
7100;SDS011;67978;48.710;8.720;2023-03-01T06:16:15;21.57;;;13.30;;
7100;SDS011;67978;48.710;8.720;2023-03-01T06:18:41;23.10;;;12.50;;
7100;SDS011;67978;48.710;8.720;2023-03-01T06:21:08;23.20;;;12.20;;
7100;SDS011;67978;48.710;8.720;2023-03-01T06:23:35;24.53;;;13.03;;
7100;SDS011;67978;48.710;8.720;2023-03-01T06:26:04;24.13;;;13.77;;
7100;SDS011;67978;48.710;8.720;2023-03-01T06:28:32;23.10;;;13.63;;
7100;SDS011;67978;48.710;8.720;2023-03-01T06:30:59;21.67;;;12.53;;
7100;SDS011;67978;48.710;8.720;2023-03-01T06:33:27;23.30;;;13.97;;
7100;SDS011;67978;48.710;8.720;2023-03-01T06:35:54;25.90;;;13.80;;
7100;SDS011;67978;48.710;8.720;2023-03-01T06:38:21;25.93;;;13.90;;
7100;SDS011;67978;48.710;8.720;2023-03-01T06:40:51;22.97;;;13.20;;
7100;SDS011;67978;48.710;8.720;2023-03-01T06:43:18;23.57;;;12.53;;
7100;SDS011;67978;48.710;8.720;2023-03-01T06:45:45;23.90;;;12.17;;
7100;SDS011;67978;48.710;8.720;2023-03-01T06:48:12;23.87;;;13.20;;
7100;SDS011;67978;48.710;8.720;2023-03-01T06:50:40;24.27;;;13.90;;
7100;SDS011;67978;48.710;8.720;2023-03-01T06:53:07;23.10;;;13.37;;
7100;SDS011;67978;48.710;8.720;2023-03-01T06:55:34;23.43;;;13.43;;
7100;SDS011;67978;48.710;8.720;2023-03-01T06:58:01;27.07;;;13.87;;
7100;SDS011;67978;48.710;8.720;2023-03-01T07:00:29;24.37;;;13.17;;
7100;SDS011;67978;48.710;8.720;2023-03-01T07:02:57;21.17;;;12.73;;
7100;SDS011;67978;48.710;8.720;2023-03-01T07:05:26;25.90;;;12.60;;
7100;SDS011;67978;48.710;8.720;2023-03-01T07:07:55;23.67;;;13.20;;
7100;SDS011;67978;48.710;8.720;2023-03-01T07:10:22;21.17;;;12.27;;
7100;SDS011;67978;48.710;8.720;2023-03-01T07:12:49;24.47;;;13.57;;
7100;SDS011;67978;48.710;8.720;2023-03-01T07:15:16;23.27;;;11.90;;
7100;SDS011;67978;48.710;8.720;2023-03-01T07:17:43;22.53;;;12.93;;
7100;SDS011;67978;48.710;8.720;2023-03-01T07:20:12;23.27;;;12.87;;
7100;SDS011;67978;48.710;8.720;2023-03-01T07:22:40;21.70;;;12.57;;
7100;SDS011;67978;48.710;8.720;2023-03-01T07:25:09;22.47;;;11.90;;
7100;SDS011;67978;48.710;8.720;2023-03-01T07:27:36;22.17;;;12.37;;
7100;SDS011;67978;48.710;8.720;2023-03-01T07:30:03;23.53;;;12.53;;
7100;SDS011;67978;48.710;8.720;2023-03-01T07:32:32;21.33;;;12.57;;
7100;SDS011;67978;48.710;8.720;2023-03-01T07:34:59;23.23;;;13.10;;
7100;SDS011;67978;48.710;8.720;2023-03-01T07:37:25;19.53;;;12.17;;
7100;SDS011;67978;48.710;8.720;2023-03-01T07:39:52;28.53;;;11.70;;
7100;SDS011;67978;48.710;8.720;2023-03-01T07:42:20;22.90;;;12.30;;
7100;SDS011;67978;48.710;8.720;2023-03-01T07:44:47;23.93;;;13.50;;
7100;SDS011;67978;48.710;8.720;2023-03-01T07:47:14;23.47;;;12.80;;
7100;SDS011;67978;48.710;8.720;2023-03-01T07:49:41;22.67;;;12.63;;
7100;SDS011;67978;48.710;8.720;2023-03-01T07:52:09;21.10;;;11.70;;
7100;SDS011;67978;48.710;8.720;2023-03-01T07:54:37;21.67;;;13.47;;
7100;SDS011;67978;48.710;8.720;2023-03-01T07:57:03;18.80;;;12.20;;
7100;SDS011;67978;48.710;8.720;2023-03-01T07:59:32;21.97;;;12.60;;
7100;SDS011;67978;48.710;8.720;2023-03-01T08:01:58;22.07;;;12.60;;
7100;SDS011;67978;48.710;8.720;2023-03-01T08:04:25;26.87;;;14.43;;
7100;SDS011;67978;48.710;8.720;2023-03-01T08:06:52;21.60;;;13.07;;
7100;SDS011;67978;48.710;8.720;2023-03-01T08:09:19;20.43;;;12.70;;
7100;SDS011;67978;48.710;8.720;2023-03-01T08:11:47;23.13;;;13.27;;
7100;SDS011;67978;48.710;8.720;2023-03-01T08:14:13;21.70;;;13.20;;
7100;SDS011;67978;48.710;8.720;2023-03-01T08:16:42;24.00;;;13.33;;
7100;SDS011;67978;48.710;8.720;2023-03-01T08:19:09;21.43;;;11.87;;
7100;SDS011;67978;48.710;8.720;2023-03-01T08:21:38;23.17;;;12.83;;
7100;SDS011;67978;48.710;8.720;2023-03-01T08:24:05;24.37;;;14.07;;
7100;SDS011;67978;48.710;8.720;2023-03-01T08:26:35;18.90;;;12.03;;
7100;SDS011;67978;48.710;8.720;2023-03-01T08:29:02;24.93;;;13.23;;
7100;SDS011;67978;48.710;8.720;2023-03-01T08:31:30;23.07;;;13.40;;
7100;SDS011;67978;48.710;8.720;2023-03-01T08:34:02;23.63;;;13.57;;
7100;SDS011;67978;48.710;8.720;2023-03-01T08:36:34;20.97;;;11.90;;
7100;SDS011;67978;48.710;8.720;2023-03-01T08:39:04;22.03;;;12.37;;
7100;SDS011;67978;48.710;8.720;2023-03-01T08:41:32;21.13;;;12.40;;
7100;SDS011;67978;48.710;8.720;2023-03-01T08:43:59;23.93;;;12.70;;
7100;SDS011;67978;48.710;8.720;2023-03-01T08:46:26;20.13;;;12.33;;
7100;SDS011;67978;48.710;8.720;2023-03-01T08:48:53;22.83;;;12.77;;
7100;SDS011;67978;48.710;8.720;2023-03-01T08:51:21;21.47;;;12.73;;
7100;SDS011;67978;48.710;8.720;2023-03-01T08:53:49;21.53;;;12.33;;
7100;SDS011;67978;48.710;8.720;2023-03-01T08:56:17;21.63;;;12.37;;
7100;SDS011;67978;48.710;8.720;2023-03-01T08:58:44;23.03;;;13.13;;
7100;SDS011;67978;48.710;8.720;2023-03-01T09:01:13;24.77;;;12.77;;
7100;SDS011;67978;48.710;8.720;2023-03-01T09:03:43;23.17;;;12.50;;
7100;SDS011;67978;48.710;8.720;2023-03-01T09:06:11;23.03;;;12.20;;
7100;SDS011;67978;48.710;8.720;2023-03-01T09:08:41;24.63;;;13.73;;
7100;SDS011;67978;48.710;8.720;2023-03-01T09:11:12;24.10;;;14.10;;
7100;SDS011;67978;48.710;8.720;2023-03-01T09:13:41;23.77;;;12.87;;
7100;SDS011;67978;48.710;8.720;2023-03-01T09:16:10;25.30;;;13.87;;
7100;SDS011;67978;48.710;8.720;2023-03-01T09:18:39;22.50;;;12.97;;
7100;SDS011;67978;48.710;8.720;2023-03-01T09:21:06;22.90;;;13.33;;
7100;SDS011;67978;48.710;8.720;2023-03-01T09:23:35;25.60;;;14.33;;
7100;SDS011;67978;48.710;8.720;2023-03-01T09:26:05;23.57;;;12.90;;
7100;SDS011;67978;48.710;8.720;2023-03-01T09:28:34;24.77;;;13.40;;
7100;SDS011;67978;48.710;8.720;2023-03-01T09:31:01;23.77;;;14.33;;
7100;SDS011;67978;48.710;8.720;2023-03-01T09:33:29;21.97;;;13.43;;
7100;SDS011;67978;48.710;8.720;2023-03-01T09:35:58;28.87;;;14.90;;
7100;SDS011;67978;48.710;8.720;2023-03-01T09:38:25;26.13;;;14.63;;
7100;SDS011;67978;48.710;8.720;2023-03-01T09:40:52;19.93;;;12.73;;
7100;SDS011;67978;48.710;8.720;2023-03-01T09:43:23;22.93;;;13.47;;
7100;SDS011;67978;48.710;8.720;2023-03-01T09:45:55;22.70;;;13.67;;
7100;SDS011;67978;48.710;8.720;2023-03-01T09:48:30;24.10;;;13.37;;
7100;SDS011;67978;48.710;8.720;2023-03-01T09:51:08;21.47;;;13.63;;
7100;SDS011;67978;48.710;8.720;2023-03-01T09:53:43;23.00;;;13.50;;
7100;SDS011;67978;48.710;8.720;2023-03-01T09:56:12;26.07;;;13.53;;
7100;SDS011;67978;48.710;8.720;2023-03-01T09:58:49;25.57;;;13.70;;
7100;SDS011;67978;48.710;8.720;2023-03-01T10:01:27;24.80;;;13.07;;
7100;SDS011;67978;48.710;8.720;2023-03-01T10:06:58;22.00;;;13.30;;
7100;SDS011;67978;48.710;8.720;2023-03-01T10:09:34;24.00;;;13.73;;
7100;SDS011;67978;48.710;8.720;2023-03-01T10:12:04;23.60;;;14.07;;
7100;SDS011;67978;48.710;8.720;2023-03-01T10:14:37;23.93;;;13.97;;
7100;SDS011;67978;48.710;8.720;2023-03-01T10:17:12;22.80;;;13.77;;
7100;SDS011;67978;48.710;8.720;2023-03-01T10:19:51;25.03;;;13.90;;
7100;SDS011;67978;48.710;8.720;2023-03-01T10:22:18;27.97;;;14.07;;
7100;SDS011;67978;48.710;8.720;2023-03-01T10:24:48;23.13;;;13.53;;
7100;SDS011;67978;48.710;8.720;2023-03-01T10:27:17;24.00;;;13.80;;
7100;SDS011;67978;48.710;8.720;2023-03-01T10:29:53;23.87;;;14.23;;
7100;SDS011;67978;48.710;8.720;2023-03-01T10:32:25;23.80;;;13.50;;
7100;SDS011;67978;48.710;8.720;2023-03-01T10:34:52;22.03;;;13.10;;
7100;SDS011;67978;48.710;8.720;2023-03-01T10:37:20;23.67;;;13.00;;
7100;SDS011;67978;48.710;8.720;2023-03-01T10:39:56;21.77;;;13.10;;
7100;SDS011;67978;48.710;8.720;2023-03-01T10:42:27;22.13;;;13.13;;
7100;SDS011;67978;48.710;8.720;2023-03-01T10:44:58;21.73;;;12.90;;
7100;SDS011;67978;48.710;8.720;2023-03-01T10:47:43;23.57;;;13.87;;
7100;SDS011;67978;48.710;8.720;2023-03-01T10:50:17;23.87;;;13.83;;
7100;SDS011;67978;48.710;8.720;2023-03-01T10:52:55;23.40;;;13.57;;
7100;SDS011;67978;48.710;8.720;2023-03-01T10:55:26;24.77;;;12.93;;
7100;SDS011;67978;48.710;8.720;2023-03-01T10:58:08;23.10;;;14.07;;
7100;SDS011;67978;48.710;8.720;2023-03-01T11:00:49;23.23;;;13.50;;
7100;SDS011;67978;48.710;8.720;2023-03-01T11:03:19;23.90;;;14.73;;
7100;SDS011;67978;48.710;8.720;2023-03-01T11:05:50;23.50;;;13.73;;
7100;SDS011;67978;48.710;8.720;2023-03-01T11:08:39;23.93;;;13.40;;
7100;SDS011;67978;48.710;8.720;2023-03-01T11:11:13;22.87;;;13.20;;
7100;SDS011;67978;48.710;8.720;2023-03-01T11:13:53;21.73;;;13.70;;
7100;SDS011;67978;48.710;8.720;2023-03-01T11:16:25;24.47;;;14.07;;
7100;SDS011;67978;48.710;8.720;2023-03-01T11:19:04;24.73;;;14.33;;
7100;SDS011;67978;48.710;8.720;2023-03-01T11:21:52;22.27;;;13.00;;
7100;SDS011;67978;48.710;8.720;2023-03-01T11:24:37;21.83;;;13.13;;
7100;SDS011;67978;48.710;8.720;2023-03-01T11:27:12;22.33;;;13.70;;
7100;SDS011;67978;48.710;8.720;2023-03-01T11:29:48;24.80;;;13.67;;
7100;SDS011;67978;48.710;8.720;2023-03-01T11:32:22;20.33;;;12.67;;
7100;SDS011;67978;48.710;8.720;2023-03-01T11:34:54;20.43;;;12.77;;
7100;SDS011;67978;48.710;8.720;2023-03-01T11:37:35;23.37;;;13.10;;
7100;SDS011;67978;48.710;8.720;2023-03-01T11:40:13;26.30;;;13.77;;
7100;SDS011;67978;48.710;8.720;2023-03-01T11:42:50;24.10;;;14.50;;
7100;SDS011;67978;48.710;8.720;2023-03-01T11:45:29;24.03;;;14.47;;
7100;SDS011;67978;48.710;8.720;2023-03-01T11:48:22;20.90;;;13.03;;
7100;SDS011;67978;48.710;8.720;2023-03-01T11:51:16;23.57;;;14.23;;
7100;SDS011;67978;48.710;8.720;2023-03-01T11:53:55;22.10;;;13.53;;
7100;SDS011;67978;48.710;8.720;2023-03-01T11:56:40;23.27;;;13.67;;
7100;SDS011;67978;48.710;8.720;2023-03-01T12:02:19;26.07;;;13.60;;
7100;SDS011;67978;48.710;8.720;2023-03-01T12:05:13;26.03;;;13.37;;
7100;SDS011;67978;48.710;8.720;2023-03-01T12:08:05;22.43;;;13.50;;
7100;SDS011;67978;48.710;8.720;2023-03-01T12:10:42;21.77;;;12.90;;
7100;SDS011;67978;48.710;8.720;2023-03-01T12:13:26;23.30;;;13.60;;
7100;SDS011;67978;48.710;8.720;2023-03-01T12:19:31;22.07;;;13.23;;
7100;SDS011;67978;48.710;8.720;2023-03-01T12:22:12;21.43;;;13.53;;
7100;SDS011;67978;48.710;8.720;2023-03-01T12:24:56;24.07;;;13.50;;
7100;SDS011;67978;48.710;8.720;2023-03-01T12:27:51;24.17;;;14.03;;
7100;SDS011;67978;48.710;8.720;2023-03-01T12:31:11;23.70;;;13.47;;
7100;SDS011;67978;48.710;8.720;2023-03-01T12:34:01;26.23;;;13.53;;
7100;SDS011;67978;48.710;8.720;2023-03-01T12:39:42;23.70;;;12.37;;
7100;SDS011;67978;48.710;8.720;2023-03-01T12:42:21;22.50;;;13.00;;
7100;SDS011;67978;48.710;8.720;2023-03-01T12:45:01;21.57;;;13.37;;
7100;SDS011;67978;48.710;8.720;2023-03-01T12:48:03;22.17;;;13.47;;
7100;SDS011;67978;48.710;8.720;2023-03-01T12:50:44;21.40;;;13.00;;
7100;SDS011;67978;48.710;8.720;2023-03-01T12:53:19;21.33;;;13.37;;
7100;SDS011;67978;48.710;8.720;2023-03-01T12:55:50;22.40;;;13.20;;
7100;SDS011;67978;48.710;8.720;2023-03-01T12:58:20;24.97;;;12.70;;
7100;SDS011;67978;48.710;8.720;2023-03-01T13:01:00;20.57;;;12.17;;
7100;SDS011;67978;48.710;8.720;2023-03-01T13:03:42;21.87;;;12.57;;
7100;SDS011;67978;48.710;8.720;2023-03-01T13:06:27;23.13;;;13.47;;
7100;SDS011;67978;48.710;8.720;2023-03-01T13:09:13;23.43;;;12.00;;
7100;SDS011;67978;48.710;8.720;2023-03-01T13:11:46;23.20;;;12.00;;
7100;SDS011;67978;48.710;8.720;2023-03-01T13:17:03;23.40;;;13.03;;
7100;SDS011;67978;48.710;8.720;2023-03-01T13:19:30;21.57;;;12.50;;
7100;SDS011;67978;48.710;8.720;2023-03-01T13:22:00;22.30;;;12.43;;
7100;SDS011;67978;48.710;8.720;2023-03-01T13:25:12;19.43;;;12.60;;
7100;SDS011;67978;48.710;8.720;2023-03-01T13:27:42;21.50;;;12.53;;
7100;SDS011;67978;48.710;8.720;2023-03-01T13:36:10;18.07;;;11.23;;
7100;SDS011;67978;48.710;8.720;2023-03-01T13:39:27;20.57;;;12.23;;
7100;SDS011;67978;48.710;8.720;2023-03-01T13:41:58;19.37;;;11.87;;
7100;SDS011;67978;48.710;8.720;2023-03-01T13:44:26;21.00;;;12.27;;
7100;SDS011;67978;48.710;8.720;2023-03-01T13:46:59;21.13;;;11.37;;
7100;SDS011;67978;48.710;8.720;2023-03-01T13:49:42;17.83;;;12.00;;
7100;SDS011;67978;48.710;8.720;2023-03-01T13:52:26;17.47;;;10.63;;
7100;SDS011;67978;48.710;8.720;2023-03-01T13:55:06;21.30;;;12.17;;
7100;SDS011;67978;48.710;8.720;2023-03-01T13:57:45;19.43;;;11.47;;
7100;SDS011;67978;48.710;8.720;2023-03-01T14:00:28;19.30;;;11.20;;
7100;SDS011;67978;48.710;8.720;2023-03-01T14:03:11;17.30;;;11.73;;
7100;SDS011;67978;48.710;8.720;2023-03-01T14:05:41;21.10;;;11.07;;
7100;SDS011;67978;48.710;8.720;2023-03-01T14:08:19;19.47;;;12.40;;
7100;SDS011;67978;48.710;8.720;2023-03-01T14:10:54;22.83;;;11.70;;
7100;SDS011;67978;48.710;8.720;2023-03-01T14:13:57;22.03;;;13.87;;
7100;SDS011;67978;48.710;8.720;2023-03-01T14:16:41;24.00;;;13.30;;
7100;SDS011;67978;48.710;8.720;2023-03-01T14:19:23;20.53;;;12.83;;
7100;SDS011;67978;48.710;8.720;2023-03-01T14:21:58;19.23;;;11.70;;
7100;SDS011;67978;48.710;8.720;2023-03-01T14:24:32;21.63;;;12.70;;
7100;SDS011;67978;48.710;8.720;2023-03-01T14:27:08;22.93;;;13.20;;
7100;SDS011;67978;48.710;8.720;2023-03-01T14:29:38;22.00;;;12.23;;
7100;SDS011;67978;48.710;8.720;2023-03-01T14:32:10;23.73;;;13.27;;
7100;SDS011;67978;48.710;8.720;2023-03-01T14:34:42;22.40;;;13.77;;
7100;SDS011;67978;48.710;8.720;2023-03-01T14:37:11;22.07;;;12.93;;
7100;SDS011;67978;48.710;8.720;2023-03-01T14:39:46;20.63;;;11.53;;
7100;SDS011;67978;48.710;8.720;2023-03-01T14:42:14;23.83;;;13.03;;
7100;SDS011;67978;48.710;8.720;2023-03-01T14:44:42;22.80;;;12.90;;
7100;SDS011;67978;48.710;8.720;2023-03-01T14:47:11;23.27;;;13.27;;
7100;SDS011;67978;48.710;8.720;2023-03-01T14:49:41;21.40;;;12.27;;
7100;SDS011;67978;48.710;8.720;2023-03-01T14:52:17;21.93;;;13.23;;
7100;SDS011;67978;48.710;8.720;2023-03-01T14:54:48;20.77;;;12.73;;
7100;SDS011;67978;48.710;8.720;2023-03-01T14:57:19;19.70;;;12.50;;
7100;SDS011;67978;48.710;8.720;2023-03-01T14:59:49;21.57;;;12.43;;
7100;SDS011;67978;48.710;8.720;2023-03-01T15:02:21;21.07;;;13.23;;
7100;SDS011;67978;48.710;8.720;2023-03-01T15:04:51;22.90;;;14.10;;
7100;SDS011;67978;48.710;8.720;2023-03-01T15:07:21;25.27;;;13.37;;
7100;SDS011;67978;48.710;8.720;2023-03-01T15:09:54;20.03;;;12.77;;
7100;SDS011;67978;48.710;8.720;2023-03-01T15:12:31;21.03;;;13.67;;
7100;SDS011;67978;48.710;8.720;2023-03-01T15:17:58;22.50;;;12.03;;
7100;SDS011;67978;48.710;8.720;2023-03-01T15:20:28;23.77;;;13.10;;
7100;SDS011;67978;48.710;8.720;2023-03-01T15:23:00;21.63;;;13.23;;
7100;SDS011;67978;48.710;8.720;2023-03-01T15:25:30;25.90;;;12.77;;